HLX weather

Parque Toreo I Heliport
Naucalpan, Mexico, Mexico

Public forecast

Using degrees Celsius for public forecast. Weather courtesy of forecast.io.

METAR (pilot weather report)

Closest report is Licenciado Benito Juarez International Airport, 8.4 nm (15.6 km) E. Retrieved 2019/06/24 18:55 UTC (2 hours ago):

MMMX 241855Z 05011KT 8SM SCT020 BKN080 OVC220 22/12 A3029 NOSIG RMK 8/872 HZY DSNT PCPN S

TAF (pilot weather forecast)

Closest forecast is Licenciado Benito Juarez International Airport, 8.4 nm (15.6 km) E. Retrieved 2019/06/24 18:09 UTC (3 hours ago):

TAF MMMX 241706Z 2418/2524 13015KT P6SM -RA BKN015CB OVC080 TX24/2420Z TN15/2512Z TEMPO 2420/2424 3SM TSRA FM250100 20010KT 5SM -RA TEMPO 2501/2505 4SM RA FM250900 00000KT 4SM HZ VC RA OVC015 FM251400 00000KT 5SM HZ SCT015 BKN030 OVC100 FM251700 16010KT P6SM SCT030 BKN100 BKN250